Stations météo

réclame
Mon MeteoGroup
Mt. St.Vincent, France (7382): Température de l'air & dewpoint: 17.09.2017 21:00:00 - 23.09.2017 21:00:00 (CEST)Mt. St.Vincent, France (7382): Vitesse du vent & gusts: 17.09.2017 21:00:00 - 23.09.2017 21:00:00 (CEST)Mt. St.Vincent, France (7382): Direction du vent: 17.09.2017 21:00:00 - 23.09.2017 21:00:00 (CEST)Mt. St.Vincent, France (7382): Ensoleillement: 17.09.2017 21:00:00 - 23.09.2017 21:00:00 (CEST)Mt. St.Vincent, France (7382): Quantités de précipitations: 17.09.2017 21:00:00 - 23.09.2017 21:00:00 (CEST)
Date & Time tt [°C] td [°C] ff [km/h] ff [knt] fx [km/h] fx [knt] dd sd [min] rr [mm]
23.09.2017 21:00:00 15,1 9,2 11 6 13 7 E 0 0,0
23.09.2017 20:00:00 15,7 10,5 8 4 11 6 E 12 -
23.09.2017 19:00:00 16,6 10,9 8 4 13 7 E 48 0,0
23.09.2017 18:00:00 17,7 9,8 4 2 11 6 ENE 0 0,0
23.09.2017 17:00:00 18,2 10,1 5 3 13 7 E 24 0,0
23.09.2017 16:00:00 18,6 10,9 8 4 16 9 NE 60 0,0
23.09.2017 15:00:00 18,6 10,9 5 3 18 10 NE 60 0,0
23.09.2017 14:00:00 18,2 11,0 8 4 15 8 E 60 -
23.09.2017 13:00:00 16,7 11,4 9 5 21 11 ENE 54 0,0
23.09.2017 12:00:00 16,0 10,7 13 7 21 11 E 48 0,0
23.09.2017 11:00:00 15,2 10,4 9 5 16 9 ENE 60 0,0
23.09.2017 10:00:00 13,5 9,5 13 7 21 11 ENE 60 0,0
23.09.2017 09:00:00 12,3 8,8 16 9 22 12 ENE 60 0,0
23.09.2017 08:00:00 11,4 8,4 15 8 22 12 NE 12 -
23.09.2017 07:00:00 11,6 8,3 16 9 26 14 NE 0 0,0
23.09.2017 06:00:00 11,8 8,5 16 9 26 14 ENE 0 0,0
23.09.2017 05:00:00 12,1 8,6 18 10 24 13 NE 0 0,0
23.09.2017 04:00:00 12,8 8,7 16 9 28 15 NE 0 0,0
23.09.2017 03:00:00 13,2 8,7 16 9 24 13 NE 0 0,0
23.09.2017 02:00:00 13,6 8,8 18 10 26 14 NE 0 -
23.09.2017 01:00:00 13,6 8,8 15 8 28 15 NNE 0 0,0
23.09.2017 00:00:00 13,7 8,9 11 6 26 14 N 0 0,0
22.09.2017 23:00:00 14,1 9,3 11 6 24 13 N 0 0,0
22.09.2017 22:00:00 14,9 9,0 8 4 15 8 N 0 0,0
22.09.2017 21:00:00 15,3 9,0 5 3 15 8 WNW 0 0,0
22.09.2017 20:00:00 15,8 8,3 11 6 18 10 W 12 -
22.09.2017 19:00:00 17,3 8,7 11 6 18 10 W 60 0,0
22.09.2017 18:00:00 18,8 9,0 13 7 24 13 W 60 0,0
22.09.2017 17:00:00 19,8 9,1 11 6 21 11 W 60 0,0
22.09.2017 16:00:00 19,6 9,5 9 5 21 11 W 60 0,0
22.09.2017 15:00:00 19,2 9,7 11 6 18 10 W 60 0,0
22.09.2017 14:00:00 18,3 9,4 8 4 16 9 W 54 -
22.09.2017 13:00:00 17,8 9,7 9 5 16 9 W 42 0,0
22.09.2017 12:00:00 16,6 7,8 4 2 11 6 W 42 0,0
22.09.2017 11:00:00 14,2 9,2 8 4 15 8 W 48 0,0
22.09.2017 10:00:00 14,2 9,2 9 5 13 7 W 60 0,0
22.09.2017 09:00:00 14,1 8,1 5 3 11 6 WNW 60 0,0
22.09.2017 08:00:00 12,6 7,1 11 6 15 8 W 12 -
22.09.2017 07:00:00 12,9 7,1 8 4 11 6 WNW 0 0,0
22.09.2017 06:00:00 13,1 7,5 8 4 11 6 WNW 0 0,0
22.09.2017 05:00:00 13,4 7,4 5 3 9 5 WNW 0 0,0
22.09.2017 04:00:00 13,2 6,5 5 3 8 4 WNW 0 0,0
22.09.2017 03:00:00 13,6 7,1 4 2 8 4 W 0 0,0
22.09.2017 02:00:00 13,8 7,3 2 1 5 3 E 0 -
22.09.2017 01:00:00 13,9 7,2 2 1 5 3 ESE 0 0,0
22.09.2017 00:00:00 13,9 6,7 2 1 5 3 E 0 0,0
21.09.2017 23:00:00 13,8 6,2 4 2 11 6 E 0 0,0
21.09.2017 22:00:00 13,4 6,3 9 5 13 7 E 0 0,0
21.09.2017 21:00:00 13,3 6,2 11 6 15 8 E 0 0,0
21.09.2017 20:00:00 13,6 6,5 11 6 15 8 E 0 -
21.09.2017 19:00:00 14,5 7,3 9 5 11 6 E 54 0,0
21.09.2017 18:00:00 15,9 7,1 9 5 15 8 ENE 60 0,0
21.09.2017 17:00:00 16,5 5,7 11 6 18 10 E 60 0,0
21.09.2017 16:00:00 16,3 7,8 9 5 16 9 ENE 60 0,0
21.09.2017 15:00:00 16,1 6,5 9 5 16 9 E 60 0,0
21.09.2017 14:00:00 15,1 6,6 9 5 18 10 E 60 -
21.09.2017 13:00:00 14,1 9,1 5 3 15 8 ENE 60 0,0
21.09.2017 12:00:00 12,8 7,7 9 5 21 11 E 48 0,0
21.09.2017 11:00:00 11,2 6,1 15 8 18 10 ENE 60 0,0
21.09.2017 10:00:00 9,6 6,3 13 7 18 10 ENE 60 0,0
21.09.2017 09:00:00 8,4 7,0 15 8 18 10 ENE 60 0,0
21.09.2017 08:00:00 7,1 7,0 16 9 26 14 ENE 12 -
21.09.2017 07:00:00 7,1 6,7 16 9 22 12 ENE 0 0,0
21.09.2017 06:00:00 7,9 6,5 16 9 24 13 ENE 0 0,0
21.09.2017 05:00:00 8,4 6,4 18 10 24 13 ENE 0 0,0
21.09.2017 04:00:00 9,4 5,4 18 10 26 14 NE 0 0,0
21.09.2017 03:00:00 9,4 6,3 21 11 28 15 NE 0 0,0
21.09.2017 02:00:00 9,1 6,4 18 10 24 13 ENE 0 -
21.09.2017 01:00:00 9,3 6,0 16 9 26 14 ENE 0 0,0
21.09.2017 00:00:00 9,8 5,6 16 9 28 15 ENE 0 0,0
20.09.2017 23:00:00 10,5 5,5 13 7 18 10 ENE 0 0,0
20.09.2017 22:00:00 11,0 5,9 11 6 15 8 NE 0 0,0
20.09.2017 21:00:00 11,3 6,0 8 4 11 6 NNE 0 0,0
20.09.2017 20:00:00 11,6 6,9 5 3 9 5 N 24 -
20.09.2017 19:00:00 13,2 7,4 2 1 8 4 NNE 48 0,0
20.09.2017 18:00:00 14,8 7,8 4 2 11 6 WNW 30 0,0
20.09.2017 17:00:00 13,3 7,5 2 1 13 7 N 6 0,0
20.09.2017 16:00:00 14,5 8,4 2 1 11 6 NNE 30 0,0
20.09.2017 15:00:00 13,6 7,6 4 2 18 10 W 12 0,0
20.09.2017 14:00:00 13,3 8,4 8 4 18 10 WNW 42 -
20.09.2017 13:00:00 12,7 8,6 4 2 15 8 WNW 42 0,0
20.09.2017 12:00:00 11,0 8,7 5 3 13 7 WNW 42 0,0
20.09.2017 11:00:00 10,1 8,5 4 2 9 5 NNW 60 0,0
20.09.2017 10:00:00 9,8 7,6 5 3 11 6 NNW 60 0,0
20.09.2017 09:00:00 8,0 7,4 5 3 13 7 NW 60 0,0
20.09.2017 08:00:00 7,0 6,9 8 4 18 10 WNW 12 -
20.09.2017 07:00:00 6,9 6,6 13 7 18 10 W 0 0,0
20.09.2017 06:00:00 7,4 7,1 9 5 15 8 WNW 0 0,0
20.09.2017 05:00:00 7,4 6,7 9 5 15 8 W 0 0,0
20.09.2017 04:00:00 7,4 6,7 11 6 16 9 W 0 0,0
20.09.2017 03:00:00 8,1 6,4 4 2 13 7 N 0 0,0
20.09.2017 02:00:00 7,4 6,2 5 3 11 6 NW 0 -
20.09.2017 01:00:00 6,9 6,0 4 2 9 5 NW 0 0,0
20.09.2017 00:00:00 7,1 5,9 4 2 11 6 NW 0 0,0
19.09.2017 23:00:00 7,4 6,3 4 2 8 4 N 0 0,0
19.09.2017 22:00:00 8,3 6,4 2 1 9 5 NW 0 0,0
19.09.2017 21:00:00 8,9 6,9 5 3 15 8 WNW 0 0,0
19.09.2017 20:00:00 9,3 6,2 8 4 21 11 WNW 0 -
19.09.2017 19:00:00 9,9 5,9 8 4 15 8 WNW 0 0,0
19.09.2017 18:00:00 10,2 6,9 2 1 15 8 NNW 0 0,0
19.09.2017 17:00:00 10,5 6,8 8 4 26 14 N 12 0,0
19.09.2017 16:00:00 10,4 7,1 13 7 31 17 WNW 18 0,0
19.09.2017 15:00:00 10,2 8,1 8 4 29 16 NW 0 0,0
19.09.2017 14:00:00 10,7 7,6 11 6 29 16 WNW 24 -
19.09.2017 13:00:00 8,9 8,8 15 8 29 16 WNW 6 0,0
19.09.2017 12:00:00 8,1 8,0 21 11 35 19 WNW 0 0,0
19.09.2017 11:00:00 7,9 7,8 18 10 28 15 W 0 0,0
19.09.2017 10:00:00 7,7 7,6 18 10 29 16 W 0 0,2
19.09.2017 09:00:00 7,1 7,1 18 10 26 14 W 0 0,0
19.09.2017 08:00:00 6,7 6,7 16 9 22 12 W 0 -
19.09.2017 07:00:00 6,5 6,4 13 7 18 10 W 0 0,0
19.09.2017 06:00:00 6,6 6,5 13 7 18 10 W 0 0,0
19.09.2017 05:00:00 6,6 6,6 13 7 26 14 W 0 0,0
19.09.2017 04:00:00 7,0 6,6 15 8 22 12 WSW 0 0,0
19.09.2017 03:00:00 7,8 5,9 13 7 18 10 W 0 0,4
19.09.2017 02:00:00 8,2 7,1 13 7 28 15 WNW 0 -
19.09.2017 01:00:00 8,7 7,0 15 8 21 11 W 0 0,0
19.09.2017 00:00:00 8,6 6,4 11 6 16 9 W 0 0,0
18.09.2017 23:00:00 9,1 5,5 4 2 11 6 NW 0 0,0
18.09.2017 22:00:00 9,5 6,8 2 1 13 7 NW 0 0,0
18.09.2017 21:00:00 9,0 6,3 4 2 15 8 WNW 0 0,0
18.09.2017 20:00:00 9,8 5,8 4 2 11 6 WNW 6 -
18.09.2017 19:00:00 10,7 5,2 2 1 8 4 NNW 0 0,0
18.09.2017 18:00:00 12,3 5,9 4 2 16 9 WNW 6 0,0
18.09.2017 17:00:00 11,9 6,0 11 6 22 12 WNW 18 0,0
18.09.2017 16:00:00 12,2 5,6 8 4 15 8 W 0 0,0
18.09.2017 15:00:00 12,0 6,3 9 5 21 11 W 12 0,0
18.09.2017 14:00:00 11,5 6,6 11 6 16 9 W 18 -
18.09.2017 13:00:00 11,1 7,4 8 4 18 10 W 6 0,0
18.09.2017 12:00:00 10,3 8,4 9 5 15 8 W 0 0,0
18.09.2017 11:00:00 8,8 8,8 11 6 18 10 W 0 0,0
18.09.2017 10:00:00 8,3 8,3 13 7 18 10 W 0 0,0
18.09.2017 09:00:00 7,6 7,6 13 7 16 9 WSW 0 0,0
18.09.2017 08:00:00 7,3 7,2 13 7 18 10 W 0 -
18.09.2017 07:00:00 7,3 7,2 13 7 21 11 W 0 0,0
18.09.2017 06:00:00 7,4 7,3 9 5 21 11 W 0 0,0
18.09.2017 05:00:00 7,4 7,3 15 8 24 13 W 0 0,0
18.09.2017 04:00:00 7,5 7,2 15 8 24 13 W 0 0,0
18.09.2017 03:00:00 7,4 7,3 16 9 31 17 W 0 0,0
18.09.2017 02:00:00 7,2 7,1 21 11 31 17 WSW 0 -
18.09.2017 01:00:00 7,1 7,0 18 10 28 15 WSW 0 0,0
18.09.2017 00:00:00 7,2 7,1 18 10 39 21 W 0 0,0
17.09.2017 23:00:00 6,9 6,9 26 14 44 24 W 0 0,0
17.09.2017 22:00:00 7,2 7,1 31 17 50 27 W 0 0,0
17.09.2017 21:00:00 7,7 7,6 29 16 46 25 W 0 0,0

tt = Température de l'air
td = dewpoint
ff = Vitesse du vent
fx = gusts
dd = Direction du vent
sd = Ensoleillement
rr = Quantités de précipitations

stations d'obs. à proximité